Share

Homestead, MT (59242)

9:12 PM MDT on April 24, 2014 (GMT -0600)
Sloulin International (KISN) Elev 1906 ft | 48.17 °N, 103.64 °W | Change Station

Current weather conditions updated 20 minutes ago

Clear
Clear
41 °F
Feels Like 41 °F
N
0
Wind Variable Wind from North
Sunrise 5:51 AM
Sunset 8:02 PM
Moon Waning Crescent

Tomorrow is forecast to be Warmer than today. Showers late tomorrow night.

Pressure 29.75 in
Visibility 10.0 miles
Clouds Clear
Dew Point 27 °F
Humidity 57%
Rainfall 0.00 in
Snow Depth Not available.
UV 0 out of 16
Pollen 9.40 out of 12
Air Quality Not available.
Flu Activity Sporadic
METAR KISN 250252Z AUTO 00000KT 10SM CLR 05/M03 A2971 RMK AO2 SLP073 T00501028 53005

More Conditions Fewer Conditions

Pressure 29.75 in
Visibility 10.0 miles
Clouds Clear
Dew Point 27 °F
Humidity 57%
Rainfall 0.00 in
Snow Depth Not available.
UV 0 out of 16
Pollen 9.40 out of 12
Air Quality Not available.
Flu Activity Sporadic
METAR KISN 250252Z AUTO 00000KT 10SM CLR 05/M03 A2971 RMK AO2 SLP073 T00501028 53005

More Conditions Fewer Conditions

10-Day Weather Forecast

Almanac

Astronomy

Apr. 24, 2014 Rise Set
Actual Time 5:51 AM MDT 8:02 PM MDT
Civil Twilight 5:17 AM MDT 8:37 PM MDT
Nautical Twilight 4:34 AM MDT 9:19 PM MDT
Astronomical Twilight 3:46 AM MDT 10:07 PM MDT
Moon 3:28 AM MDT (4/24) 2:58 PM MDT (4/24)
Length of Visible Light 15h 19m
Length of Day
14h 11m
Tomorrow will be 3m 15s longer.
Waning Crescent, 20% of the Moon is Illuminated
Today
Waning Crescent
Apr 29
New
May 6
First Quarter
May 14
Full
May 21
Last Quarter

Today's Extremes

State Highs State Lows

Community

  • Critter
    Critter
  • Jone Runs Falls
    Jone Runs Falls
  • Easter in Shenandoah National Park
    Easter in Shenandoah National Park
  • Sunset at Apalachicola Bay, Florida
    Sunset at Apalachicola Bay, Florida
  • Clouds mov'n in
    Clouds mov'n in

WunderPhotos

Upload Photos

1,704,822 photos uploaded!

WunderBlogs® & News

Nearby

Snow Depth

Station Depth Elevation
Crystal Lake 50 in 6050 ft
Daisy Peak 46 in 7600 ft
Spur Park 88 in 8100 ft
Deadman Creek 38 in 6450 ft
Onion Park 51 in 7410 ft

Coastal Water Temperatures

Place Temperature
No Stations Reporting

Earthquake Activity

City Distance Mag. Time & Date
No recent earthquake activity has been reported nearby.
Minimum magnitude displayed is 2.5.

Nearby Weather Stations

Station Location Temp. Windchill Dew Point Humidity Wind Precip. Elev Updated Type
RAWS MEDICINE LAKE MT, Medicine Lake, MT 48 °F 47 °F 27 °F 44% NNE  at  4 mph 0.00 in / hr 1975 ft 7:58 PM MDT MADIS
HADS BIG MUDDY CREEK NEAR ANTELOPE 3S MT, Antelope, MT 46 °F 46 °F - - North  at  - 0.00 in / hr 2000 ft 8:15 PM MDT MADIS

Show More Stations Show Fewer Stations

What do you think?

We're not finished. Please let us know what you like, what you don't like, and what you are still missing.